Time;durP1;ratioP1;P1;durP2;ratioP2;P2;SDS_P1;SDS_P2;PMS_P1;PMS_P2;Temp;Humidity;BMP_temperature;BMP_pressure;BME280_temperature;BME280_humidity;BME280_pressure;Samples;Min_cycle;Max_cycle;Signal;HPM_P1;HPM_P2
2022/11/17 00:01:08;;;;;;;;;;;19.90;66.50;;;;;;5056362;28;19986;-60
2022/11/17 00:03:33;;;;;;;;;;;19.90;66.50;;;;;;5056290;28;20047;-59
2022/11/17 00:06:03;;;;;;;;;;;19.90;66.50;;;;;;5055513;28;20364;-59
2022/11/17 00:08:28;;;;;;;;;;;19.90;66.50;;;;;;5055888;28;19929;-59
2022/11/17 00:10:54;;;;;;;;;;;19.90;66.50;;;;;;5055341;28;19936;-60
2022/11/17 00:16:03;;;;;;;;;;;19.80;66.40;;;;;;5055515;28;19925;-59
2022/11/17 00:21:18;;;;;;;;;;;19.80;66.40;;;;;;5055945;28;19936;-59
2022/11/17 00:23:46;;;;;;;;;;;19.80;66.40;;;;;;5056000;28;20074;-60
2022/11/17 00:26:13;;;;;;;;;;;19.80;66.30;;;;;;5054516;28;19925;-59
2022/11/17 00:28:38;;;;;;;;;;;19.80;66.30;;;;;;5055508;28;20029;-59
2022/11/17 00:34:06;;;;;;;;;;;19.80;66.30;;;;;;5055163;28;19924;-60
2022/11/17 00:36:32;;;;;;;;;;;19.80;66.40;;;;;;5055543;28;19931;-60
2022/11/17 00:38:57;;;;;;;;;;;19.70;66.30;;;;;;5055689;28;19925;-60
2022/11/17 00:41:23;;;;;;;;;;;19.70;66.30;;;;;;5054284;28;19933;-60
2022/11/17 00:43:48;;;;;;;;;;;19.70;66.20;;;;;;5055724;28;19925;-60
2022/11/17 00:46:14;;;;;;;;;;;19.70;66.30;;;;;;5054235;28;19936;-60
2022/11/17 00:48:39;;;;;;;;;;;19.70;66.20;;;;;;5055635;28;20403;-60
2022/11/17 00:51:05;;;;;;;;;;;19.70;66.20;;;;;;5055510;28;19931;-61
2022/11/17 00:53:30;;;;;;;;;;;19.70;66.30;;;;;;5054314;28;19932;-60
2022/11/17 00:55:56;;;;;;;;;;;19.70;66.80;;;;;;5055077;28;19925;-60
2022/11/17 00:58:21;;;;;;;;;;;19.70;66.10;;;;;;5055222;28;19932;-60
2022/11/17 01:00:47;;;;;;;;;;;19.70;66.20;;;;;;5072634;28;19983;-60
2022/11/17 01:03:13;;;;;;;;;;;19.70;66.80;;;;;;5075140;28;19924;-60
2022/11/17 01:05:38;;;;;;;;;;;19.70;66.10;;;;;;5074192;28;19999;-60
2022/11/17 01:08:04;;;;;;;;;;;19.70;66.20;;;;;;5074416;28;20318;-60
2022/11/17 01:10:29;;;;;;;;;;;19.70;66.20;;;;;;5074647;28;19924;-60
2022/11/17 01:12:55;;;;;;;;;;;19.70;66.10;;;;;;5075247;28;20285;-60
2022/11/17 01:15:20;;;;;;;;;;;19.60;66.10;;;;;;5073839;28;19921;-60
2022/11/17 01:17:45;;;;;;;;;;;19.60;66.10;;;;;;5074724;28;19924;-60
2022/11/17 01:20:11;;;;;;;;;;;19.60;66.00;;;;;;5074737;28;19928;-60
2022/11/17 01:22:36;;;;;;;;;;;19.60;66.00;;;;;;5074093;28;19973;-60
2022/11/17 01:25:03;;;;;;;;;;;19.60;66.00;;;;;;5074430;28;19924;-60
2022/11/17 01:27:29;;;;;;;;;;;19.60;66.00;;;;;;5073993;28;20015;-60
2022/11/17 01:29:54;;;;;;;;;;;19.60;66.00;;;;;;5055753;28;20031;-60
2022/11/17 01:32:20;;;;;;;;;;;19.60;66.00;;;;;;5074186;28;20453;-60
2022/11/17 01:34:45;;;;;;;;;;;19.60;65.90;;;;;;5074774;28;20038;-60
2022/11/17 01:37:20;;;;;;;;;;;19.60;65.90;;;;;;5073219;28;20380;-60
2022/11/17 01:39:49;;;;;;;;;;;19.60;65.90;;;;;;5056551;28;19928;-60
2022/11/17 01:42:15;;;;;;;;;;;19.60;65.90;;;;;;5074326;28;19928;-60
2022/11/17 01:44:50;;;;;;;;;;;19.50;65.90;;;;;;5073885;28;19932;-60
2022/11/17 01:47:33;;;;;;;;;;;19.60;66.00;;;;;;5074242;28;19927;-59
2022/11/17 01:50:31;;;;;;;;;;;19.50;65.90;;;;;;5073332;28;19924;-59
2022/11/17 01:52:58;;;;;;;;;;;19.50;65.90;;;;;;5051062;28;19924;-59
2022/11/17 01:55:24;;;;;;;;;;;19.50;65.90;;;;;;5073608;28;20372;-60
2022/11/17 01:58:01;;;;;;;;;;;19.50;65.80;;;;;;5073348;28;19931;-60
2022/11/17 02:00:26;;;;;;;;;;;19.50;65.90;;;;;;5073951;28;19920;-60
2022/11/17 02:02:51;;;;;;;;;;;19.50;65.80;;;;;;5089468;28;19924;-60
2022/11/17 02:05:19;;;;;;;;;;;19.50;65.70;;;;;;5064400;28;19924;-60
2022/11/17 02:07:45;;;;;;;;;;;19.50;65.70;;;;;;5069181;28;19931;-60
2022/11/17 02:10:10;;;;;;;;;;;19.50;65.70;;;;;;5053544;28;19925;-60
2022/11/17 02:12:35;;;;;;;;;;;19.50;65.70;;;;;;5053058;28;20364;-60
2022/11/17 02:15:01;;;;;;;;;;;19.50;65.70;;;;;;5053785;28;19925;-59
2022/11/17 02:17:36;;;;;;;;;;;19.50;65.60;;;;;;5051867;28;19999;-59
2022/11/17 02:20:04;;;;;;;;;;;19.50;65.80;;;;;;5053439;28;20311;-60
2022/11/17 02:22:39;;;;;;;;;;;19.40;65.60;;;;;;5068906;28;19960;-59
2022/11/17 02:25:05;;;;;;;;;;;19.40;65.60;;;;;;5067922;28;20379;-59
2022/11/17 02:27:39;;;;;;;;;;;19.40;65.60;;;;;;5053338;28;19955;-59
2022/11/17 02:30:12;;;;;;;;;;;19.40;65.60;;;;;;5069042;28;19925;-59
2022/11/17 02:32:40;;;;;;;;;;;19.40;65.60;;;;;;5067872;28;19931;-59
2022/11/17 02:35:08;;;;;;;;;;;19.40;65.50;;;;;;5068793;28;20368;-59
2022/11/17 02:37:44;;;;;;;;;;;19.40;65.60;;;;;;5068923;28;19991;-60
2022/11/17 02:40:11;;;;;;;;;;;19.40;65.50;;;;;;5067659;28;19925;-60
2022/11/17 02:45:52;;;;;;;;;;;19.40;65.50;;;;;;5052999;28;19925;-60
2022/11/17 02:48:44;;;;;;;;;;;19.40;65.60;;;;;;5052650;28;19932;-60
2022/11/17 02:51:10;;;;;;;;;;;19.40;65.60;;;;;;5051620;28;19925;-60
2022/11/17 02:53:36;;;;;;;;;;;19.40;65.50;;;;;;5067429;28;20358;-60
2022/11/17 02:56:02;;;;;;;;;;;19.40;65.50;;;;;;5068738;28;20015;-60
2022/11/17 02:58:27;;;;;;;;;;;19.40;65.50;;;;;;5052669;28;19931;-60
2022/11/17 03:00:57;;;;;;;;;;;19.40;65.50;;;;;;5051916;28;19925;-60
2022/11/17 03:03:46;;;;;;;;;;;19.40;65.40;;;;;;5067844;28;20265;-59
2022/11/17 03:06:17;;;;;;;;;;;19.40;65.40;;;;;;5041834;28;19940;-60
2022/11/17 03:08:52;;;;;;;;;;;19.40;65.50;;;;;;5052213;28;19931;-60
2022/11/17 03:11:19;;;;;;;;;;;19.30;65.40;;;;;;5052158;28;20322;-60
2022/11/17 03:13:48;;;;;;;;;;;19.30;65.40;;;;;;5067681;28;19928;-60
2022/11/17 03:16:32;;;;;;;;;;;19.40;65.40;;;;;;5052623;28;20021;-60
2022/11/17 03:19:03;;;;;;;;;;;19.30;65.30;;;;;;5052817;28;19925;-58
2022/11/17 03:21:30;;;;;;;;;;;19.30;65.30;;;;;;5051291;28;20395;-59
2022/11/17 03:23:59;;;;;;;;;;;19.30;65.40;;;;;;5068038;28;19935;-59
2022/11/17 03:26:27;;;;;;;;;;;19.30;65.30;;;;;;5067599;28;19925;-60
2022/11/17 03:28:53;;;;;;;;;;;19.30;65.30;;;;;;5067319;28;19931;-59
2022/11/17 03:31:18;;;;;;;;;;;19.30;65.20;;;;;;5067586;28;19925;-60
2022/11/17 03:33:44;;;;;;;;;;;19.30;65.30;;;;;;5067969;28;19929;-59
2022/11/17 03:36:11;;;;;;;;;;;19.30;65.20;;;;;;5067167;28;19932;-59
2022/11/17 03:38:37;;;;;;;;;;;19.30;65.20;;;;;;5068148;28;19928;-59
2022/11/17 03:41:03;;;;;;;;;;;19.30;65.20;;;;;;5068043;28;20010;-59
2022/11/17 03:43:28;;;;;;;;;;;19.30;65.20;;;;;;5051598;28;20384;-59
2022/11/17 03:45:54;;;;;;;;;;;19.30;65.20;;;;;;5052300;28;19968;-59
2022/11/17 03:48:21;;;;;;;;;;;19.30;65.20;;;;;;5067918;28;19960;-59
2022/11/17 03:50:50;;;;;;;;;;;19.30;65.20;;;;;;5066885;28;19978;-59
2022/11/17 03:53:16;;;;;;;;;;;19.30;65.30;;;;;;5052047;28;20387;-59
2022/11/17 03:55:48;;;;;;;;;;;19.30;65.20;;;;;;5067940;28;19963;-59
2022/11/17 03:58:14;;;;;;;;;;;19.30;65.20;;;;;;5066834;28;19924;-59
2022/11/17 04:00:40;;;;;;;;;;;19.30;65.20;;;;;;5052390;28;19946;-59
2022/11/17 04:03:05;;;;;;;;;;;19.30;65.20;;;;;;5051614;28;19928;-59
2022/11/17 04:05:31;;;;;;;;;;;19.30;65.10;;;;;;5051317;28;19925;-59
2022/11/17 04:07:56;;;;;;;;;;;19.30;65.10;;;;;;5052426;28;19924;-59
2022/11/17 04:10:23;;;;;;;;;;;19.30;65.10;;;;;;5050718;28;19925;-59
2022/11/17 04:18:17;;;;;;;;;;;19.30;65.00;;;;;;5051393;28;20016;-59
2022/11/17 04:20:43;;;;;;;;;;;19.30;65.00;;;;;;5051959;28;19952;-59
2022/11/17 04:23:10;;;;;;;;;;;19.30;65.00;;;;;;5052112;28;19925;-59
2022/11/17 04:28:37;;;;;;;;;;;19.30;64.90;;;;;;5051659;28;20397;-59
2022/11/17 04:31:09;;;;;;;;;;;19.30;64.90;;;;;;5052249;28;19948;-58
2022/11/17 04:33:35;;;;;;;;;;;19.40;64.90;;;;;;5051891;28;20391;-59
2022/11/17 04:36:01;;;;;;;;;;;19.40;64.80;;;;;;5052067;28;19971;-59
2022/11/17 04:38:26;;;;;;;;;;;19.40;64.90;;;;;;5050926;28;20734;-59
2022/11/17 04:43:37;;;;;;;;;;;19.40;64.80;;;;;;5055848;28;19924;-59
2022/11/17 04:46:03;;;;;;;;;;;19.40;64.70;;;;;;5054797;28;20494;-60
2022/11/17 04:48:28;;;;;;;;;;;19.40;64.70;;;;;;5055237;28;19990;-59
2022/11/17 04:50:54;;;;;;;;;;;19.50;64.70;;;;;;5055371;28;19929;-59
2022/11/17 04:53:19;;;;;;;;;;;19.50;64.70;;;;;;5054289;28;19925;-59
2022/11/17 04:55:45;;;;;;;;;;;19.50;64.70;;;;;;5055405;28;19932;-59
2022/11/17 04:58:10;;;;;;;;;;;19.50;64.60;;;;;;5054869;28;19932;-59
2022/11/17 05:00:36;;;;;;;;;;;19.50;64.60;;;;;;5054509;28;20062;-59
2022/11/17 05:03:01;;;;;;;;;;;19.50;64.60;;;;;;5054915;28;19928;-59
2022/11/17 05:05:27;;;;;;;;;;;19.50;64.60;;;;;;5054169;28;19925;-59
2022/11/17 05:07:52;;;;;;;;;;;19.50;64.60;;;;;;5053824;28;19929;-59
2022/11/17 05:13:20;;;;;;;;;;;19.50;64.50;;;;;;5054665;28;19924;-59
2022/11/17 05:13:23;;;;;;;;;;;19.50;64.50;;;;;;5055011;28;19971;-59
2022/11/17 05:18:35;;;;;;;;;;;19.60;64.50;;;;;;5054778;28;20399;-59
2022/11/17 05:21:01;;;;;;;;;;;19.60;64.50;;;;;;5054237;28;19976;-59
2022/11/17 05:26:22;;;;;;;;;;;19.60;64.40;;;;;;5040789;28;19924;-59
2022/11/17 05:28:48;;;;;;;;;;;19.60;64.50;;;;;;5053923;28;19925;-59
2022/11/17 05:31:13;;;;;;;;;;;19.70;64.50;;;;;;5054531;28;19932;-59
2022/11/17 05:33:39;;;;;;;;;;;19.70;64.50;;;;;;5054412;28;19929;-59
2022/11/17 05:36:04;;;;;;;;;;;19.70;64.40;;;;;;5053863;28;20407;-59
2022/11/17 05:38:30;;;;;;;;;;;19.70;64.40;;;;;;5054057;28;19971;-59
2022/11/17 05:40:55;;;;;;;;;;;19.70;64.40;;;;;;5054434;28;20392;-60
2022/11/17 05:43:21;;;;;;;;;;;19.70;64.40;;;;;;5053540;28;20288;-60
2022/11/17 05:45:46;;;;;;;;;;;19.70;64.40;;;;;;5054566;28;19931;-60
2022/11/17 05:48:12;;;;;;;;;;;19.70;64.30;;;;;;5054154;28;20288;-60
2022/11/17 05:50:37;;;;;;;;;;;19.70;64.30;;;;;;5053268;28;20040;-60
2022/11/17 05:53:03;;;;;;;;;;;19.70;64.30;;;;;;5054091;28;20281;-60
2022/11/17 05:55:28;;;;;;;;;;;19.70;64.20;;;;;;5053458;28;19929;-60
2022/11/17 05:57:54;;;;;;;;;;;19.70;64.20;;;;;;5053739;28;20062;-60
2022/11/17 06:00:19;;;;;;;;;;;19.80;64.20;;;;;;5054064;28;19947;-59
2022/11/17 06:02:55;;;;;;;;;;;19.80;64.20;;;;;;5053467;28;19929;-59
2022/11/17 06:05:22;;;;;;;;;;;19.80;64.20;;;;;;5053906;28;19952;-60
2022/11/17 06:07:49;;;;;;;;;;;19.80;64.40;;;;;;5054173;28;19956;-60
2022/11/17 06:10:14;;;;;;;;;;;19.80;64.20;;;;;;5052514;28;19932;-59
2022/11/17 06:12:40;;;;;;;;;;;19.80;64.10;;;;;;5053949;28;19929;-60
2022/11/17 06:15:05;;;;;;;;;;;19.80;64.10;;;;;;5053745;28;19925;-60
2022/11/17 06:17:35;;;;;;;;;;;19.80;64.10;;;;;;5052843;28;19964;-60
2022/11/17 06:20:20;;;;;;;;;;;19.80;64.10;;;;;;5053776;28;19925;-60
2022/11/17 06:22:46;;;;;;;;;;;19.80;64.10;;;;;;5053031;28;20019;-59
2022/11/17 06:25:11;;;;;;;;;;;19.80;64.10;;;;;;5067794;28;20511;-60
2022/11/17 06:27:37;;;;;;;;;;;19.90;64.10;;;;;;5069138;28;20407;-59
2022/11/17 06:30:03;;;;;;;;;;;19.90;64.10;;;;;;5068791;28;19925;-60
2022/11/17 06:32:29;;;;;;;;;;;19.80;64.10;;;;;;5052540;28;20050;-60
2022/11/17 06:34:54;;;;;;;;;;;19.90;64.10;;;;;;5053649;28;20019;-59
2022/11/17 06:37:20;;;;;;;;;;;19.80;64.00;;;;;;5052942;28;19974;-60
2022/11/17 06:39:45;;;;;;;;;;;19.90;64.00;;;;;;5052220;28;19924;-60
2022/11/17 06:42:11;;;;;;;;;;;19.90;64.00;;;;;;5053191;28;19921;-60
2022/11/17 06:44:36;;;;;;;;;;;19.90;63.90;;;;;;5053419;28;20011;-59
2022/11/17 06:47:02;;;;;;;;;;;19.90;64.00;;;;;;5052503;28;19932;-60
2022/11/17 06:49:27;;;;;;;;;;;19.90;64.00;;;;;;5053013;28;19925;-60
2022/11/17 06:51:53;;;;;;;;;;;19.90;64.50;;;;;;5052408;28;19925;-60
2022/11/17 06:54:18;;;;;;;;;;;19.90;63.90;;;;;;5052723;28;19925;-60
2022/11/17 06:56:44;;;;;;;;;;;19.90;63.90;;;;;;5053210;28;19924;-60
2022/11/17 06:59:09;;;;;;;;;;;19.90;63.90;;;;;;5052054;28;19964;-60
2022/11/17 07:01:35;;;;;;;;;;;19.90;63.90;;;;;;5035186;28;19968;-60
2022/11/17 07:04:01;;;;;;;;;;;19.90;63.90;;;;;;5052526;28;19978;-60
2022/11/17 07:06:26;;;;;;;;;;;19.90;63.90;;;;;;5052148;28;19929;-60
2022/11/17 07:08:52;;;;;;;;;;;19.90;63.90;;;;;;5052820;28;20284;-60
2022/11/17 07:11:17;;;;;;;;;;;19.90;63.80;;;;;;5052658;28;19925;-60
2022/11/17 07:13:43;;;;;;;;;;;19.90;63.90;;;;;;5052164;28;20366;-60
2022/11/17 07:16:15;;;;;;;;;;;19.90;63.80;;;;;;5052957;28;19924;-60
2022/11/17 07:18:41;;;;;;;;;;;19.90;63.80;;;;;;5052754;28;19925;-60
2022/11/17 07:21:08;;;;;;;;;;;19.90;63.80;;;;;;5051895;28;20035;-60
2022/11/17 07:23:33;;;;;;;;;;;19.90;63.80;;;;;;5052261;28;20284;-60
2022/11/17 07:25:59;;;;;;;;;;;19.90;63.80;;;;;;5057521;28;19924;-60
2022/11/17 07:28:24;;;;;;;;;;;19.90;63.60;;;;;;5069714;28;20023;-61
2022/11/17 07:30:50;;;;;;;;;;;19.90;63.60;;;;;;5072510;28;19931;-60
2022/11/17 07:33:15;;;;;;;;;;;20.00;63.60;;;;;;5054232;28;19924;-60
2022/11/17 07:35:41;;;;;;;;;;;19.90;63.50;;;;;;5071663;28;19935;-60
2022/11/17 07:38:07;;;;;;;;;;;19.90;63.50;;;;;;5072602;28;19932;-60
2022/11/17 07:40:32;;;;;;;;;;;19.90;63.50;;;;;;5072339;28;20022;-60
2022/11/17 07:42:58;;;;;;;;;;;19.90;63.50;;;;;;5071902;28;19931;-60
2022/11/17 07:45:23;;;;;;;;;;;19.90;63.60;;;;;;5072335;28;19934;-60
2022/11/17 07:47:55;;;;;;;;;;;20.00;63.60;;;;;;5072500;28;19924;-60
2022/11/17 07:50:21;;;;;;;;;;;19.90;63.60;;;;;;5071387;28;20007;-61
2022/11/17 07:52:48;;;;;;;;;;;19.90;63.70;;;;;;5072455;28;19924;-60
2022/11/17 07:55:13;;;;;;;;;;;19.90;63.80;;;;;;5071510;28;19924;-60
2022/11/17 07:57:39;;;;;;;;;;;20.00;63.90;;;;;;5072624;28;20330;-60
2022/11/17 08:00:04;;;;;;;;;;;20.00;63.90;;;;;;5072556;28;20368;-60
2022/11/17 08:02:30;;;;;;;;;;;20.00;64.00;;;;;;5071489;28;20014;-61
2022/11/17 08:04:55;;;;;;;;;;;20.00;64.10;;;;;;5072646;28;20016;-60
2022/11/17 08:07:21;;;;;;;;;;;20.00;64.20;;;;;;5072348;28;19978;-60
2022/11/17 08:09:47;;;;;;;;;;;19.90;64.20;;;;;;5071730;28;20398;-60
2022/11/17 08:12:12;;;;;;;;;;;20.00;64.20;;;;;;5072102;28;19925;-59
2022/11/17 08:14:37;;;;;;;;;;;20.00;64.20;;;;;;5073268;28;19924;-59
2022/11/17 08:17:03;;;;;;;;;;;20.00;64.30;;;;;;5057513;28;19928;-59
2022/11/17 08:19:28;;;;;;;;;;;20.00;64.20;;;;;;5075779;28;19929;-58
2022/11/17 08:21:54;;;;;;;;;;;20.10;64.30;;;;;;5076130;28;19928;-59
2022/11/17 08:24:19;;;;;;;;;;;20.00;64.30;;;;;;5087646;28;19998;-58
2022/11/17 08:26:45;;;;;;;;;;;20.10;64.20;;;;;;5069619;28;19936;-58
2022/11/17 08:29:10;;;;;;;;;;;20.00;64.20;;;;;;5075902;28;20299;-59
2022/11/17 08:31:36;;;;;;;;;;;20.10;64.20;;;;;;5074758;28;19930;-58
2022/11/17 08:34:01;;;;;;;;;;;20.10;64.20;;;;;;5075580;28;19924;-58
2022/11/17 08:36:27;;;;;;;;;;;20.10;64.20;;;;;;5075553;28;19929;-59
2022/11/17 08:38:52;;;;;;;;;;;20.10;64.20;;;;;;5075108;28;19924;-59
2022/11/17 08:41:18;;;;;;;;;;;20.10;64.20;;;;;;5075261;28;19924;-59
2022/11/17 08:43:44;;;;;;;;;;;20.10;64.20;;;;;;5075576;28;19994;-58
2022/11/17 08:46:12;;;;;;;;;;;20.10;64.10;;;;;;5074511;28;20322;-59
2022/11/17 08:48:38;;;;;;;;;;;20.10;64.20;;;;;;5075073;28;19921;-59
2022/11/17 08:51:04;;;;;;;;;;;20.10;64.20;;;;;;5069573;28;19928;-59
2022/11/17 08:53:29;;;;;;;;;;;20.10;64.20;;;;;;5074610;28;19931;-59
2022/11/17 08:55:55;;;;;;;;;;;20.20;64.20;;;;;;5075523;28;19928;-59
2022/11/17 08:58:20;;;;;;;;;;;20.10;64.20;;;;;;5074953;28;19924;-59
2022/11/17 09:00:46;;;;;;;;;;;20.20;64.20;;;;;;5075038;28;19978;-59
2022/11/17 09:03:12;;;;;;;;;;;20.10;64.10;;;;;;5074850;28;19925;-59
2022/11/17 09:05:37;;;;;;;;;;;20.20;64.20;;;;;;5074275;28;19974;-59
2022/11/17 09:08:04;;;;;;;;;;;20.10;64.10;;;;;;5091084;28;19924;-59
2022/11/17 09:10:29;;;;;;;;;;;20.20;64.20;;;;;;5074590;28;19936;-58
2022/11/17 09:12:55;;;;;;;;;;;20.10;64.70;;;;;;5074365;28;19928;-58
2022/11/17 09:15:21;;;;;;;;;;;20.10;64.10;;;;;;5075036;28;19920;-59
2022/11/17 09:17:46;;;;;;;;;;;20.20;64.00;;;;;;5074820;28;20384;-58
2022/11/17 09:20:12;;;;;;;;;;;20.20;64.10;;;;;;5074139;28;19921;-62
2022/11/17 09:22:38;;;;;;;;;;;20.10;64.00;;;;;;5074791;28;19931;-61
2022/11/17 09:25:03;;;;;;;;;;;20.10;64.00;;;;;;5074258;28;20379;-61
2022/11/17 09:27:29;;;;;;;;;;;20.10;63.90;;;;;;5055738;28;19924;-61
2022/11/17 09:29:54;;;;;;;;;;;20.20;64.00;;;;;;5074564;28;20164;-61
2022/11/17 09:32:20;;;;;;;;;;;20.10;63.90;;;;;;5074320;28;19932;-63
2022/11/17 09:34:45;;;;;;;;;;;20.10;63.90;;;;;;5074162;28;19928;-61
2022/11/17 09:37:11;;;;;;;;;;;20.10;63.80;;;;;;5072021;28;19946;-61
2022/11/17 09:39:36;;;;;;;;;;;20.10;63.90;;;;;;5065193;28;19939;-60
2022/11/17 09:42:02;;;;;;;;;;;20.10;63.80;;;;;;5072825;28;19983;-61
2022/11/17 09:44:30;;;;;;;;;;;20.10;63.80;;;;;;5073525;28;19924;-60
2022/11/17 09:47:14;;;;;;;;;;;20.10;63.70;;;;;;5069183;28;20014;-60
2022/11/17 09:49:58;;;;;;;;;;;20.10;63.80;;;;;;5069977;28;20019;-61
2022/11/17 09:52:26;;;;;;;;;;;20.10;63.90;;;;;;5072892;28;19924;-60
2022/11/17 09:54:55;;;;;;;;;;;20.00;63.90;;;;;;5086045;28;20019;-59
2022/11/17 09:57:23;;;;;;;;;;;20.00;63.80;;;;;;5073079;28;20387;-60
2022/11/17 09:59:51;;;;;;;;;;;20.00;63.90;;;;;;5084136;28;19929;-60
2022/11/17 10:02:16;;;;;;;;;;;20.00;63.90;;;;;;5053596;28;19974;-59
2022/11/17 10:04:41;;;;;;;;;;;20.00;63.80;;;;;;5072867;28;19924;-59
2022/11/17 10:07:07;;;;;;;;;;;20.00;63.80;;;;;;5054702;28;20018;-59
2022/11/17 10:09:34;;;;;;;;;;;20.00;63.90;;;;;;5086665;28;19925;-59
2022/11/17 10:12:06;;;;;;;;;;;20.00;63.90;;;;;;5068398;28;19925;-59
2022/11/17 10:14:31;;;;;;;;;;;20.00;63.90;;;;;;5068825;28;19925;-60
2022/11/17 10:16:57;;;;;;;;;;;20.00;63.90;;;;;;5068627;28;19939;-59
2022/11/17 10:19:33;;;;;;;;;;;20.00;63.90;;;;;;5053369;28;19929;-60
2022/11/17 10:22:01;;;;;;;;;;;19.90;63.90;;;;;;5053450;28;20441;-59
2022/11/17 10:24:33;;;;;;;;;;;19.90;63.80;;;;;;5052398;28;19931;-59
2022/11/17 10:26:58;;;;;;;;;;;20.00;64.00;;;;;;5053633;28;19925;-60
2022/11/17 10:29:23;;;;;;;;;;;20.00;63.90;;;;;;5053201;28;19929;-59
2022/11/17 10:31:49;;;;;;;;;;;20.00;64.10;;;;;;5052736;28;19924;-59
2022/11/17 10:34:30;;;;;;;;;;;20.00;64.60;;;;;;5052513;28;21572;-60
2022/11/17 10:36:56;;;;;;;;;;;20.00;64.10;;;;;;5052152;28;19928;-59
2022/11/17 10:39:32;;;;;;;;;;;20.00;64.20;;;;;;5052855;28;20422;-60
2022/11/17 10:41:58;;;;;;;;;;;20.00;64.20;;;;;;5053405;28;19990;-60
2022/11/17 10:44:24;;;;;;;;;;;20.00;64.20;;;;;;5054645;28;20392;-60
2022/11/17 10:46:53;;;;;;;;;;;20.00;64.20;;;;;;5062558;28;19986;-60
2022/11/17 10:49:22;;;;;;;;;;;19.90;64.10;;;;;;5061776;28;19924;-60
2022/11/17 10:51:48;;;;;;;;;;;19.90;64.10;;;;;;5058709;28;19933;-60
2022/11/17 10:54:13;;;;;;;;;;;20.00;64.20;;;;;;5088335;28;19924;-60
2022/11/17 10:56:40;;;;;;;;;;;19.90;64.20;;;;;;5068410;28;20430;-60
2022/11/17 10:59:09;;;;;;;;;;;19.90;64.20;;;;;;5033300;28;20458;-60
2022/11/17 11:01:43;;;;;;;;;;;19.90;64.10;;;;;;5055058;28;19924;-60
2022/11/17 11:04:26;;;;;;;;;;;19.90;64.10;;;;;;5060630;28;19925;-60
2022/11/17 11:07:11;;;;;;;;;;;19.90;64.10;;;;;;5060666;28;20418;-60
2022/11/17 11:09:54;;;;;;;;;;;19.90;64.20;;;;;;5062496;28;20380;-60
2022/11/17 11:12:23;;;;;;;;;;;19.90;64.20;;;;;;5061904;28;20777;-59
2022/11/17 11:14:52;;;;;;;;;;;19.90;64.20;;;;;;5037300;28;19925;-59
2022/11/17 11:17:19;;;;;;;;;;;19.90;64.10;;;;;;5035611;28;19939;-61
2022/11/17 11:19:46;;;;;;;;;;;19.90;64.20;;;;;;5034155;28;20396;-60
2022/11/17 11:22:24;;;;;;;;;;;19.90;64.20;;;;;;5052747;28;19964;-60
2022/11/17 11:25:09;;;;;;;;;;;19.90;64.30;;;;;;5035322;28;19933;-60
2022/11/17 11:27:47;;;;;;;;;;;19.90;64.30;;;;;;5011263;28;20366;-60
2022/11/17 11:30:16;;;;;;;;;;;19.90;64.30;;;;;;5035031;28;20479;-60
2022/11/17 11:32:47;;;;;;;;;;;19.90;64.40;;;;;;5052972;28;20379;-60
2022/11/17 11:35:13;;;;;;;;;;;19.90;64.40;;;;;;5051863;28;20361;-60
2022/11/17 11:37:40;;;;;;;;;;;19.90;64.40;;;;;;5053029;28;19932;-60
2022/11/17 11:40:21;;;;;;;;;;;19.90;64.40;;;;;;5037571;28;19931;-59
2022/11/17 11:42:46;;;;;;;;;;;19.90;64.30;;;;;;5055657;28;20066;-60
2022/11/17 11:45:16;;;;;;;;;;;19.80;64.30;;;;;;5051598;28;20023;-61
2022/11/17 11:47:54;;;;;;;;;;;19.80;64.40;;;;;;5032451;28;19952;-60
2022/11/17 11:50:26;;;;;;;;;;;19.80;64.40;;;;;;5054562;28;19925;-60
2022/11/17 11:52:57;;;;;;;;;;;19.80;64.30;;;;;;5037541;28;20019;-60
2022/11/17 11:55:25;;;;;;;;;;;19.80;64.40;;;;;;5053863;28;19925;-60
2022/11/17 11:57:54;;;;;;;;;;;19.80;64.30;;;;;;5052185;28;19925;-59
2022/11/17 12:00:20;;;;;;;;;;;19.80;64.50;;;;;;5069012;28;20548;-59
2022/11/17 12:02:55;;;;;;;;;;;19.80;64.50;;;;;;5069432;28;19933;-59
2022/11/17 12:05:28;;;;;;;;;;;19.80;64.50;;;;;;5071417;28;19932;-60
2022/11/17 12:07:56;;;;;;;;;;;19.80;64.70;;;;;;5055163;28;19925;-60
2022/11/17 12:10:28;;;;;;;;;;;19.80;64.70;;;;;;5070103;28;19925;-59
2022/11/17 12:12:54;;;;;;;;;;;19.80;64.70;;;;;;5056192;28;19932;-59
2022/11/17 12:15:19;;;;;;;;;;;19.80;64.80;;;;;;5070488;28;19929;-59
2022/11/17 12:17:51;;;;;;;;;;;19.80;64.80;;;;;;5056067;28;19928;-59
2022/11/17 12:20:34;;;;;;;;;;;19.80;64.80;;;;;;5055997;28;20082;-60
2022/11/17 12:23:15;;;;;;;;;;;19.80;64.80;;;;;;5055188;28;20265;-60
2022/11/17 12:25:48;;;;;;;;;;;19.80;64.90;;;;;;5071262;28;19978;-60
2022/11/17 12:28:17;;;;;;;;;;;19.80;64.90;;;;;;5055391;28;20292;-60
2022/11/17 12:30:43;;;;;;;;;;;19.80;64.90;;;;;;5035145;28;19970;-60
2022/11/17 12:33:08;;;;;;;;;;;19.90;65.00;;;;;;5055489;28;20020;-60
2022/11/17 12:35:34;;;;;;;;;;;19.80;64.80;;;;;;5070833;28;20392;-61
2022/11/17 12:38:15;;;;;;;;;;;19.90;64.80;;;;;;5069930;28;19925;-60
2022/11/17 12:40:42;;;;;;;;;;;19.80;64.60;;;;;;5055165;28;19937;-60
2022/11/17 12:43:13;;;;;;;;;;;19.90;64.40;;;;;;5055535;28;19924;-60
2022/11/17 12:45:57;;;;;;;;;;;19.90;63.60;;;;;;5054905;28;19971;-60
2022/11/17 12:48:24;;;;;;;;;;;19.90;63.80;;;;;;5055185;28;19929;-61
2022/11/17 12:50:52;;;;;;;;;;;19.90;63.90;;;;;;5055027;28;20383;-60
2022/11/17 12:53:36;;;;;;;;;;;19.90;64.50;;;;;;5071031;28;19932;-60
2022/11/17 12:56:07;;;;;;;;;;;19.90;63.90;;;;;;5055325;28;19921;-60
2022/11/17 12:59:02;;;;;;;;;;;19.90;64.00;;;;;;5069759;28;20299;-60
2022/11/17 13:01:36;;;;;;;;;;;19.90;64.00;;;;;;5048866;28;20438;-60
2022/11/17 13:04:09;;;;;;;;;;;20.00;64.00;;;;;;5071041;28;19924;-60
2022/11/17 13:06:35;;;;;;;;;;;20.00;64.10;;;;;;5053255;28;19964;-60
2022/11/17 13:09:01;;;;;;;;;;;20.00;64.00;;;;;;5055428;28;19983;-60
2022/11/17 13:11:27;;;;;;;;;;;20.00;64.00;;;;;;5054827;28;19940;-60
2022/11/17 13:14:11;;;;;;;;;;;20.00;64.00;;;;;;5054708;28;19924;-60
2022/11/17 13:16:41;;;;;;;;;;;20.00;64.00;;;;;;5055360;28;19928;-61
2022/11/17 13:19:25;;;;;;;;;;;20.10;64.10;;;;;;5054335;28;20332;-60
2022/11/17 13:21:56;;;;;;;;;;;20.10;64.10;;;;;;5070603;28;19935;-60
2022/11/17 13:24:34;;;;;;;;;;;20.10;64.10;;;;;;5054415;28;19924;-60
2022/11/17 13:27:00;;;;;;;;;;;20.10;64.10;;;;;;5053978;28;19932;-60
2022/11/17 13:29:26;;;;;;;;;;;20.10;64.10;;;;;;5054480;28;19928;-60
2022/11/17 13:32:25;;;;;;;;;;;20.10;64.10;;;;;;5055063;28;19925;-60
2022/11/17 13:34:59;;;;;;;;;;;20.10;64.10;;;;;;5041979;28;19925;-61
2022/11/17 13:37:27;;;;;;;;;;;20.10;64.70;;;;;;5054684;28;19964;-60
2022/11/17 13:39:54;;;;;;;;;;;20.20;64.10;;;;;;5054004;28;20372;-60
2022/11/17 13:42:19;;;;;;;;;;;20.20;64.10;;;;;;5054249;28;20434;-61
2022/11/17 13:44:45;;;;;;;;;;;20.10;64.10;;;;;;5070240;28;20023;-60
2022/11/17 13:47:20;;;;;;;;;;;20.20;64.10;;;;;;5053655;28;19925;-60
2022/11/17 13:49:45;;;;;;;;;;;20.20;64.10;;;;;;5054589;28;19924;-60
2022/11/17 13:52:31;;;;;;;;;;;20.20;64.10;;;;;;5053908;28;19932;-61
2022/11/17 13:54:56;;;;;;;;;;;20.20;64.10;;;;;;5049498;28;19933;-61
2022/11/17 13:57:26;;;;;;;;;;;20.20;64.10;;;;;;5053743;28;20334;-61
2022/11/17 13:59:51;;;;;;;;;;;20.20;64.00;;;;;;5070021;28;19975;-61
2022/11/17 14:02:19;;;;;;;;;;;20.20;64.10;;;;;;5053344;28;19933;-61
2022/11/17 14:05:15;;;;;;;;;;;20.20;64.10;;;;;;5054500;28;19932;-61
2022/11/17 14:07:41;;;;;;;;;;;20.20;64.10;;;;;;5053554;28;19928;-61
2022/11/17 14:10:18;;;;;;;;;;;20.30;64.10;;;;;;5053351;28;19935;-61
2022/11/17 14:12:51;;;;;;;;;;;20.30;64.10;;;;;;5053819;28;19925;-61
2022/11/17 14:15:23;;;;;;;;;;;20.30;64.10;;;;;;5068660;28;20024;-61
2022/11/17 14:17:49;;;;;;;;;;;20.30;64.10;;;;;;5053837;28;19970;-62
2022/11/17 14:20:19;;;;;;;;;;;20.30;64.10;;;;;;5053533;28;19929;-62
2022/11/17 14:22:58;;;;;;;;;;;20.30;64.10;;;;;;5053103;28;19925;-62
2022/11/17 14:25:23;;;;;;;;;;;20.30;64.10;;;;;;5053122;28;19925;-61
2022/11/17 14:27:49;;;;;;;;;;;20.30;64.10;;;;;;5053770;28;20402;-61
2022/11/17 14:30:15;;;;;;;;;;;20.30;64.10;;;;;;5052450;28;19932;-61
2022/11/17 14:32:40;;;;;;;;;;;20.30;64.10;;;;;;5053768;28;19925;-62
2022/11/17 14:35:06;;;;;;;;;;;20.30;64.10;;;;;;5053898;28;19981;-61
2022/11/17 14:37:31;;;;;;;;;;;20.30;64.10;;;;;;5052569;28;20280;-62
2022/11/17 14:39:59;;;;;;;;;;;20.30;64.10;;;;;;5053494;28;20032;-61
2022/11/17 14:42:24;;;;;;;;;;;20.30;64.10;;;;;;5053105;28;19929;-61
2022/11/17 14:44:50;;;;;;;;;;;20.30;64.10;;;;;;5052985;28;19925;-61
2022/11/17 14:47:15;;;;;;;;;;;20.30;64.10;;;;;;5053095;28;19985;-61
2022/11/17 14:49:41;;;;;;;;;;;20.30;64.00;;;;;;5035435;28;19928;-61
2022/11/17 14:52:06;;;;;;;;;;;20.40;64.10;;;;;;5052582;28;20067;-61